Time;durP1;ratioP1;P1;durP2;ratioP2;P2;SDS_P1;SDS_P2;PMS_P1;PMS_P2;Temp;Humidity;BMP_temperature;BMP_pressure;BME280_temperature;BME280_humidity;BME280_pressure;Samples;Min_cycle;Max_cycle;Signal;HPM_P1;HPM_P2
2021/04/23 00:01:32;;;;;;;6.80;1.97;;;3.40;99.90;;;;;;5019251;28;20169;-72
2021/04/23 00:04:04;;;;;;;5.70;2.03;;;3.40;99.90;;;;;;5021372;28;20189;-73
2021/04/23 00:06:49;;;;;;;3.33;1.90;;;3.40;99.90;;;;;;5022007;28;20436;-72
2021/04/23 00:09:24;;;;;;;2.77;2.30;;;3.40;99.90;;;;;;5019421;28;20481;-72
2021/04/23 00:11:51;;;;;;;2.17;1.83;;;3.30;99.90;;;;;;5022993;28;20522;-72
2021/04/23 00:14:21;;;;;;;3.33;1.90;;;3.30;99.90;;;;;;5021800;28;20773;-72
2021/04/23 00:16:46;;;;;;;5.17;2.60;;;3.30;99.90;;;;;;5019984;28;20434;-72
2021/04/23 00:19:17;;;;;;;5.40;2.13;;;3.30;99.90;;;;;;5017532;28;20458;-73
2021/04/23 00:21:43;;;;;;;4.07;2.20;;;3.20;99.90;;;;;;5024092;28;20190;-72
2021/04/23 00:24:10;;;;;;;8.20;2.33;;;3.20;99.90;;;;;;5021709;28;20428;-72
2021/04/23 00:26:36;;;;;;;10.03;3.17;;;3.20;99.90;;;;;;5022681;28;20422;-72
2021/04/23 00:29:02;;;;;;;4.33;2.50;;;3.10;99.90;;;;;;5021717;28;20506;-72
2021/04/23 00:31:28;;;;;;;5.10;2.90;;;3.00;99.90;;;;;;5020616;28;20851;-72
2021/04/23 00:33:53;;;;;;;4.30;2.37;;;3.00;99.90;;;;;;5020106;28;20551;-72
2021/04/23 00:36:19;;;;;;;3.07;2.40;;;2.90;99.90;;;;;;5018314;28;20220;-72
2021/04/23 00:38:46;;;;;;;5.20;2.53;;;2.90;99.90;;;;;;5019303;28;20281;-72
2021/04/23 00:41:15;;;;;;;3.63;2.50;;;2.90;99.90;;;;;;5022945;28;20584;-72
2021/04/23 00:43:45;;;;;;;4.33;1.87;;;2.80;99.90;;;;;;5018025;28;20426;-72
2021/04/23 00:46:13;;;;;;;7.33;2.40;;;2.80;99.90;;;;;;5023176;28;20517;-72
2021/04/23 00:48:47;;;;;;;3.57;2.10;;;2.70;99.90;;;;;;5020213;28;20865;-72
2021/04/23 00:51:16;;;;;;;5.87;2.60;;;2.70;99.90;;;;;;5023686;28;20433;-72
2021/04/23 00:53:44;;;;;;;5.43;2.00;;;2.70;99.90;;;;;;5023004;28;20472;-73
2021/04/23 00:56:15;;;;;;;4.77;2.03;;;2.60;99.90;;;;;;5022873;28;20767;-72
2021/04/23 00:58:41;;;;;;;6.13;3.03;;;2.60;99.90;;;;;;5018005;28;20824;-72
2021/04/23 01:01:32;;;;;;;5.67;2.43;;;2.60;99.90;;;;;;5022239;28;20461;-72
2021/04/23 01:03:58;;;;;;;12.23;2.73;;;2.50;99.90;;;;;;5015081;28;21053;-72
2021/04/23 01:06:26;;;;;;;12.53;4.10;;;2.50;99.90;;;;;;5018737;28;20454;-72
2021/04/23 01:08:53;;;;;;;14.00;4.27;;;2.50;99.90;;;;;;5024375;28;20957;-72
2021/04/23 01:11:22;;;;;;;7.20;2.47;;;2.50;99.90;;;;;;5014897;28;20944;-73
2021/04/23 01:13:48;;;;;;;8.33;3.07;;;2.50;99.90;;;;;;5016251;28;20866;-73
2021/04/23 01:16:17;;;;;;;4.50;3.03;;;2.50;99.90;;;;;;5022770;28;20417;-73
2021/04/23 01:18:43;;;;;;;7.20;2.77;;;2.40;99.90;;;;;;5019504;28;20486;-71
2021/04/23 01:21:14;;;;;;;4.27;2.37;;;2.40;99.90;;;;;;5021454;28;20421;-72
2021/04/23 01:23:42;;;;;;;3.50;2.37;;;2.40;99.90;;;;;;5018295;28;20438;-72
2021/04/23 01:26:10;;;;;;;3.83;2.20;;;2.30;99.90;;;;;;5021320;28;20427;-71
2021/04/23 01:28:36;;;;;;;4.10;2.37;;;2.30;99.90;;;;;;5021929;28;20453;-72
2021/04/23 01:31:04;;;;;;;3.33;1.90;;;2.30;99.90;;;;;;5022969;28;20518;-73
2021/04/23 01:33:31;;;;;;;4.17;1.90;;;2.30;99.90;;;;;;5015175;28;20453;-71
2021/04/23 01:35:56;;;;;;;2.23;1.77;;;2.20;99.90;;;;;;5019331;28;20466;-72
2021/04/23 01:38:22;;;;;;;5.80;2.53;;;2.10;99.90;;;;;;5019722;28;20811;-71
2021/04/23 01:40:48;;;;;;;2.50;2.03;;;2.10;99.90;;;;;;5022609;28;20186;-72
2021/04/23 01:43:16;;;;;;;3.57;2.50;;;2.10;99.90;;;;;;5019155;28;20533;-71
2021/04/23 01:45:42;;;;;;;7.30;2.33;;;2.00;99.90;;;;;;5020408;28;21142;-71
2021/04/23 01:48:08;;;;;;;4.27;2.43;;;2.00;99.90;;;;;;5020145;28;20538;-72
2021/04/23 01:50:34;;;;;;;7.67;2.70;;;2.00;99.90;;;;;;5019978;28;20689;-72
2021/04/23 01:53:00;;;;;;;7.83;3.37;;;2.00;99.90;;;;;;5014191;28;20475;-73
2021/04/23 01:55:26;;;;;;;2.17;1.87;;;1.90;99.90;;;;;;5018789;28;20425;-71
2021/04/23 01:57:53;;;;;;;2.73;2.47;;;1.90;99.90;;;;;;5018605;28;20170;-73
2021/04/23 02:00:26;;;;;;;6.00;2.67;;;1.90;99.90;;;;;;5019083;28;20418;-72
2021/04/23 02:02:53;;;;;;;18.20;2.50;;;1.90;99.90;;;;;;5015987;28;20434;-73
2021/04/23 02:05:20;;;;;;;3.77;1.90;;;1.90;99.90;;;;;;5015916;28;20429;-71
2021/04/23 02:07:46;;;;;;;6.77;2.70;;;1.80;99.90;;;;;;5022162;28;20965;-69
2021/04/23 02:10:17;;;;;;;8.53;2.90;;;1.80;99.90;;;;;;5020556;28;20459;-71
2021/04/23 02:12:44;;;;;;;3.33;2.20;;;1.80;99.90;;;;;;5021244;28;20449;-71
2021/04/23 02:15:13;;;;;;;3.70;2.17;;;1.80;99.90;;;;;;5019752;28;20426;-71
2021/04/23 02:17:39;;;;;;;2.93;1.57;;;1.80;99.90;;;;;;5017697;28;20931;-71
2021/04/23 02:20:11;;;;;;;3.50;2.93;;;1.80;99.90;;;;;;5019987;28;20464;-71
2021/04/23 02:22:37;;;;;;;4.20;2.13;;;1.70;99.90;;;;;;5020004;28;20428;-71
2021/04/23 02:25:05;;;;;;;7.80;2.70;;;1.70;99.90;;;;;;5020705;28;20422;-72
2021/04/23 02:27:30;;;;;;;10.23;2.37;;;1.60;99.90;;;;;;5018473;28;20432;-70
2021/04/23 02:29:56;;;;;;;5.13;2.73;;;1.60;99.90;;;;;;5019471;28;20454;-72
2021/04/23 02:32:21;;;;;;;3.70;2.33;;;1.60;99.90;;;;;;5021443;28;20182;-70
2021/04/23 02:34:47;;;;;;;10.17;2.67;;;1.60;99.90;;;;;;5020978;28;20288;-72
2021/04/23 02:37:13;;;;;;;5.13;2.80;;;1.60;99.90;;;;;;5018286;28;20205;-72
2021/04/23 02:39:38;;;;;;;3.73;2.27;;;1.60;99.90;;;;;;5016915;28;20217;-71
2021/04/23 02:42:04;;;;;;;5.27;2.53;;;1.60;99.90;;;;;;5020276;28;20259;-71
2021/04/23 02:44:30;;;;;;;5.70;2.20;;;1.50;99.90;;;;;;5016341;28;20192;-72
2021/04/23 02:46:56;;;;;;;8.70;2.57;;;1.50;99.90;;;;;;5017792;28;20494;-72
2021/04/23 02:49:22;;;;;;;3.77;2.60;;;1.50;99.90;;;;;;5019020;28;20280;-73
2021/04/23 02:51:48;;;;;;;9.20;2.47;;;1.50;99.90;;;;;;5020228;28;20174;-73
2021/04/23 02:54:16;;;;;;;2.73;2.00;;;1.50;99.90;;;;;;5019851;28;20473;-72
2021/04/23 02:56:42;;;;;;;2.80;2.33;;;1.40;99.90;;;;;;5022498;28;20435;-71
2021/04/23 02:59:08;;;;;;;5.87;2.40;;;1.40;99.90;;;;;;5023281;28;20877;-72
2021/04/23 03:01:42;;;;;;;8.30;2.90;;;1.40;99.90;;;;;;5021651;28;20429;-72
2021/04/23 03:04:08;;;;;;;9.23;3.37;;;1.40;99.90;;;;;;5023966;28;20475;-72
2021/04/23 03:06:34;;;;;;;6.80;2.20;;;1.40;99.90;;;;;;5021553;28;20484;-71
2021/04/23 03:09:00;;;;;;;10.50;2.93;;;1.40;99.90;;;;;;5025308;28;20204;-71
2021/04/23 03:11:26;;;;;;;12.37;3.23;;;1.30;99.90;;;;;;5022970;28;20227;-71
2021/04/23 03:13:54;;;;;;;4.20;2.57;;;1.30;99.90;;;;;;5022700;28;20294;-72
2021/04/23 03:16:20;;;;;;;9.73;2.80;;;1.40;99.90;;;;;;5018361;28;20175;-72
2021/04/23 03:18:47;;;;;;;8.13;3.00;;;1.40;99.90;;;;;;5023274;28;20442;-72
2021/04/23 03:21:15;;;;;;;10.77;3.27;;;1.40;99.90;;;;;;5022671;28;20423;-72
2021/04/23 03:23:43;;;;;;;7.13;3.00;;;1.40;99.90;;;;;;5019106;28;20488;-71
2021/04/23 03:26:11;;;;;;;6.23;3.00;;;1.30;99.90;;;;;;5020951;28;20429;-71
2021/04/23 03:28:38;;;;;;;9.37;4.50;;;1.30;99.90;;;;;;5022301;28;20449;-71
2021/04/23 03:31:05;;;;;;;4.63;3.20;;;1.30;99.90;;;;;;5022650;28;20432;-71
2021/04/23 03:33:31;;;;;;;8.33;2.60;;;1.20;99.90;;;;;;5024796;28;20458;-71
2021/04/23 03:35:58;;;;;;;9.10;3.70;;;1.20;99.90;;;;;;5025060;28;20828;-71
2021/04/23 03:38:26;;;;;;;4.13;2.50;;;1.10;99.90;;;;;;5021198;28;20529;-72
2021/04/23 03:40:53;;;;;;;12.63;3.07;;;1.10;99.90;;;;;;5018759;28;20434;-72
2021/04/23 03:43:18;;;;;;;5.77;2.90;;;1.10;99.90;;;;;;5026193;28;20466;-71
2021/04/23 03:45:45;;;;;;;6.90;3.20;;;1.10;99.90;;;;;;5022448;28;20928;-72
2021/04/23 03:48:10;;;;;;;7.83;3.17;;;1.10;99.90;;;;;;5024482;28;20568;-71
2021/04/23 03:50:37;;;;;;;3.70;2.27;;;1.00;99.90;;;;;;5023375;28;20444;-72
2021/04/23 03:53:06;;;;;;;8.83;3.20;;;1.00;99.90;;;;;;5020036;28;20213;-72
2021/04/23 03:55:35;;;;;;;7.77;2.80;;;1.00;99.90;;;;;;5018261;28;20428;-72
2021/04/23 03:58:03;;;;;;;6.00;3.13;;;0.90;99.90;;;;;;5021591;28;20428;-72
2021/04/23 04:00:42;;;;;;;6.67;2.40;;;0.90;99.90;;;;;;5021466;28;20422;-71
2021/04/23 04:03:08;;;;;;;6.53;2.63;;;0.90;99.90;;;;;;5021925;28;20430;-72
2021/04/23 04:05:35;;;;;;;4.33;2.40;;;0.90;99.90;;;;;;5021451;28;20426;-73
2021/04/23 04:08:04;;;;;;;7.67;3.63;;;0.90;99.90;;;;;;5022722;28;20448;-71
2021/04/23 04:10:30;;;;;;;8.40;3.47;;;0.90;99.90;;;;;;5022314;28;20426;-71
2021/04/23 04:12:56;;;;;;;7.80;3.03;;;0.90;99.90;;;;;;5024522;28;20474;-71
2021/04/23 04:15:23;;;;;;;5.40;3.40;;;0.90;99.90;;;;;;5021273;28;20481;-71
2021/04/23 04:17:50;;;;;;;12.50;2.93;;;0.90;99.90;;;;;;5017080;28;20181;-71
2021/04/23 04:20:16;;;;;;;10.70;3.03;;;0.90;99.90;;;;;;5020968;28;20435;-72
2021/04/23 04:22:42;;;;;;;4.80;2.67;;;0.90;99.90;;;;;;5019317;28;20491;-72
2021/04/23 04:25:13;;;;;;;15.63;2.63;;;0.90;99.90;;;;;;5018673;28;20429;-72
2021/04/23 04:27:40;;;;;;;6.27;3.43;;;0.90;99.90;;;;;;5021674;28;20431;-72
2021/04/23 04:30:07;;;;;;;6.63;3.20;;;0.90;99.90;;;;;;5020094;28;20417;-73
2021/04/23 04:32:33;;;;;;;8.07;4.23;;;1.00;99.90;;;;;;5020563;28;20508;-72
2021/04/23 04:34:58;;;;;;;8.07;3.30;;;1.00;99.90;;;;;;5021704;28;21016;-72
2021/04/23 04:37:24;;;;;;;8.13;3.83;;;1.00;99.90;;;;;;5023211;28;20521;-72
2021/04/23 04:39:49;;;;;;;6.70;2.70;;;1.10;99.90;;;;;;5024222;28;20273;-73
2021/04/23 04:42:15;;;;;;;9.30;3.63;;;1.10;99.90;;;;;;5019276;28;20310;-72
2021/04/23 04:44:41;;;;;;;8.47;2.90;;;1.10;99.90;;;;;;5022356;28;20193;-74
2021/04/23 04:47:06;;;;;;;7.23;2.73;;;1.10;99.90;;;;;;5023429;28;20243;-73
2021/04/23 04:49:32;;;;;;;8.17;3.80;;;1.20;99.90;;;;;;5022483;28;20232;-72
2021/04/23 04:51:58;;;;;;;6.40;3.40;;;1.20;99.90;;;;;;5021118;28;20189;-72
2021/04/23 04:54:23;;;;;;;6.70;3.20;;;1.30;99.90;;;;;;5021531;28;21876;-72
2021/04/23 04:56:49;;;;;;;7.33;2.90;;;1.40;99.90;;;;;;5015507;28;20425;-72
2021/04/23 04:59:14;;;;;;;10.13;3.80;;;1.40;99.90;;;;;;5021654;28;20197;-72
2021/04/23 05:01:40;;;;;;;8.90;3.30;;;1.50;99.90;;;;;;5020164;28;20184;-71
2021/04/23 05:04:05;;;;;;;9.97;4.20;;;1.50;99.90;;;;;;5017185;28;20210;-74
2021/04/23 05:06:31;;;;;;;7.17;3.17;;;1.60;99.90;;;;;;5018141;28;20802;-72
2021/04/23 05:08:57;;;;;;;10.17;3.23;;;1.80;99.90;;;;;;5023068;28;20208;-72
2021/04/23 05:11:22;;;;;;;10.00;3.80;;;1.90;99.90;;;;;;5015783;28;20425;-75
2021/04/23 05:13:48;;;;;;;5.93;3.60;;;2.00;99.90;;;;;;5012511;28;20258;-73
2021/04/23 05:16:16;;;;;;;8.80;3.23;;;2.20;99.90;;;;;;5017318;28;20622;-74
2021/04/23 05:18:41;;;;;;;8.33;3.73;;;2.40;99.90;;;;;;5018777;28;20211;-72
2021/04/23 05:21:07;;;;;;;12.53;3.10;;;2.90;99.90;;;;;;5025318;28;20434;-72
2021/04/23 05:23:32;;;;;;;6.40;3.10;;;3.30;99.90;;;;;;5023761;28;20720;-72
2021/04/23 05:25:58;;;;;;;10.93;3.77;;;4.50;99.90;;;;;;5019059;28;20181;-72
2021/04/23 05:28:23;;;;;;;7.93;3.40;;;6.80;99.90;;;;;;5015820;28;20223;-72
2021/04/23 05:30:50;;;;;;;9.20;3.43;;;8.70;99.90;;;;;;5015512;28;20652;-72
2021/04/23 05:33:16;;;;;;;4.07;3.50;;;10.40;99.90;;;;;;5016830;28;20202;-74
2021/04/23 05:35:42;;;;;;;10.47;4.50;;;11.80;99.90;;;;;;5014938;28;20483;-72
2021/04/23 05:38:08;;;;;;;5.17;4.10;;;12.50;99.90;;;;;;5025653;28;21171;-73
2021/04/23 05:40:37;;;;;;;10.47;4.10;;;14.00;99.90;;;;;;5019346;28;20429;-73
2021/04/23 05:43:05;;;;;;;10.13;3.77;;;14.80;99.90;;;;;;5018962;28;20560;-73
2021/04/23 05:45:31;;;;;;;8.03;4.13;;;15.20;99.90;;;;;;5015517;28;20432;-73
2021/04/23 05:47:57;;;;;;;8.47;3.90;;;15.90;99.90;;;;;;5020354;28;20797;-71
2021/04/23 05:50:23;;;;;;;7.87;4.27;;;15.80;99.90;;;;;;5019162;28;20936;-68
2021/04/23 05:52:50;;;;;;;10.47;4.40;;;16.10;99.40;;;;;;5015199;28;20432;-71
2021/04/23 05:55:17;;;;;;;7.60;4.03;;;16.60;97.90;;;;;;5017813;28;20186;-70
2021/04/23 05:57:43;;;;;;;6.23;4.33;;;17.30;97.80;;;;;;5009432;28;20495;-72
2021/04/23 06:00:12;;;;;;;11.93;4.03;;;16.60;96.90;;;;;;5017266;28;20481;-73
2021/04/23 06:02:38;;;;;;;8.40;4.70;;;16.90;96.80;;;;;;5017575;28;20977;-71
2021/04/23 06:05:06;;;;;;;14.40;4.57;;;16.90;96.10;;;;;;5015991;28;20436;-71
2021/04/23 06:07:31;;;;;;;9.00;3.97;;;17.50;96.00;;;;;;5019040;28;20427;-71
2021/04/23 06:09:57;;;;;;;9.73;5.40;;;18.10;94.60;;;;;;5020015;28;21157;-71
2021/04/23 06:12:22;;;;;;;4.90;4.50;;;18.20;93.50;;;;;;5021869;28;20186;-70
2021/04/23 06:14:48;;;;;;;7.80;4.50;;;18.40;92.20;;;;;;5019161;28;20210;-71
2021/04/23 06:17:13;;;;;;;12.63;5.03;;;17.90;91.30;;;;;;5021796;28;20192;-69
2021/04/23 06:19:40;;;;;;;7.17;5.20;;;17.80;92.50;;;;;;5018385;28;20214;-70
2021/04/23 06:22:08;;;;;;;10.37;3.80;;;17.60;92.30;;;;;;5018868;28;20178;-70
2021/04/23 06:24:35;;;;;;;16.17;4.70;;;17.10;91.60;;;;;;5014808;28;20469;-70
2021/04/23 06:27:02;;;;;;;8.73;5.07;;;16.40;93.70;;;;;;5019896;28;20436;-71
2021/04/23 06:29:28;;;;;;;6.53;4.30;;;15.80;94.10;;;;;;5019717;28;20461;-72
2021/04/23 06:31:55;;;;;;;10.27;5.30;;;15.50;94.60;;;;;;5020493;28;20429;-69
2021/04/23 06:34:20;;;;;;;14.20;5.50;;;15.20;94.90;;;;;;5009120;28;20472;-70
2021/04/23 06:36:46;;;;;;;7.90;5.30;;;15.40;95.60;;;;;;5014332;28;20998;-70
2021/04/23 06:39:15;;;;;;;10.17;5.03;;;15.20;95.70;;;;;;5022663;28;20202;-73
2021/04/23 06:41:46;;;;;;;16.03;5.20;;;14.60;94.10;;;;;;5014845;28;20186;-70
2021/04/23 06:44:13;;;;;;;11.47;5.00;;;14.20;94.20;;;;;;5011152;28;20536;-70
2021/04/23 06:46:38;;;;;;;13.33;5.63;;;13.90;95.00;;;;;;5011024;28;20440;-72
2021/04/23 06:49:04;;;;;;;7.00;4.93;;;13.90;95.70;;;;;;5009996;28;20972;-72
2021/04/23 06:51:30;;;;;;;5.17;4.63;;;14.20;96.30;;;;;;4996199;28;20186;-71
2021/04/23 06:53:56;;;;;;;10.07;5.27;;;14.20;94.80;;;;;;5015014;28;20465;-72
2021/04/23 06:56:22;;;;;;;26.47;5.00;;;14.10;95.50;;;;;;5015518;28;20224;-71
2021/04/23 06:58:47;;;;;;;28.20;4.90;;;14.40;95.60;;;;;;5015374;28;20448;-70
2021/04/23 07:01:16;;;;;;;8.70;5.07;;;14.60;94.60;;;;;;5013391;28;20175;-70
2021/04/23 07:03:43;;;;;;;11.73;4.80;;;14.10;95.50;;;;;;5011412;28;20182;-70
2021/04/23 07:06:09;;;;;;;15.70;6.03;;;14.40;95.70;;;;;;5009557;28;20469;-70
2021/04/23 07:08:35;;;;;;;11.67;5.00;;;13.80;94.60;;;;;;5016318;28;20477;-71
2021/04/23 07:11:01;;;;;;;9.40;4.60;;;13.70;96.20;;;;;;5013505;28;20699;-72
2021/04/23 07:13:27;;;;;;;12.73;4.80;;;14.10;95.40;;;;;;5016091;28;20555;-72
2021/04/23 07:15:52;;;;;;;8.57;4.53;;;14.40;95.30;;;;;;5015526;28;20183;-72
2021/04/23 07:18:18;;;;;;;11.50;4.90;;;14.90;95.90;;;;;;5012373;28;20267;-73
2021/04/23 07:20:44;;;;;;;10.83;5.27;;;14.90;93.70;;;;;;5013726;28;20255;-72
2021/04/23 07:23:09;;;;;;;11.00;4.20;;;15.10;94.00;;;;;;5015270;28;20750;-72
2021/04/23 07:25:35;;;;;;;11.00;5.13;;;15.00;93.90;;;;;;5015961;28;20194;-72
2021/04/23 07:28:01;;;;;;;9.43;4.83;;;15.30;93.50;;;;;;5014978;28;20220;-72
2021/04/23 07:30:34;;;;;;;7.10;4.10;;;15.60;93.70;;;;;;5015341;28;20482;-72
2021/04/23 07:33:00;;;;;;;8.13;4.90;;;15.80;93.60;;;;;;5015974;28;20437;-72
2021/04/23 07:35:27;;;;;;;8.77;4.17;;;16.10;93.40;;;;;;5015627;28;20436;-71
2021/04/23 07:37:55;;;;;;;12.27;4.43;;;16.10;92.70;;;;;;4990327;28;20438;-72
2021/04/23 07:40:20;;;;;;;9.80;4.07;;;16.20;92.70;;;;;;5016676;28;20466;-72
2021/04/23 07:42:47;;;;;;;9.10;3.93;;;16.20;92.00;;;;;;5021318;28;20498;-73
2021/04/23 07:45:14;;;;;;;11.33;4.10;;;16.00;91.90;;;;;;5020164;28;20174;-72
2021/04/23 07:47:39;;;;;;;7.83;4.43;;;15.30;91.80;;;;;;5003282;28;20433;-74
2021/04/23 07:50:07;;;;;;;6.53;3.90;;;15.90;93.30;;;;;;5016893;28;20857;-73
2021/04/23 07:52:33;;;;;;;9.80;4.47;;;16.20;92.70;;;;;;5021773;28;20502;-73
2021/04/23 07:55:01;;;;;;;9.07;4.70;;;16.30;93.20;;;;;;5022786;28;20479;-73
2021/04/23 07:57:27;;;;;;;7.00;3.87;;;16.50;92.00;;;;;;5015653;28;20465;-73
2021/04/23 07:59:53;;;;;;;11.70;4.73;;;16.40;91.80;;;;;;5023431;28;20468;-72
2021/04/23 08:02:19;;;;;;;13.50;4.87;;;15.80;93.00;;;;;;5019814;28;20190;-72
2021/04/23 08:04:45;;;;;;;15.23;4.90;;;16.10;92.30;;;;;;5020051;28;20482;-73
2021/04/23 08:07:11;;;;;;;12.00;4.97;;;16.20;91.80;;;;;;5018362;28;20300;-73
2021/04/23 08:09:37;;;;;;;15.40;5.67;;;16.50;94.20;;;;;;5018573;28;20206;-73
2021/04/23 08:12:03;;;;;;;11.23;5.73;;;16.90;92.90;;;;;;5021056;28;20948;-72
2021/04/23 08:14:29;;;;;;;16.27;5.47;;;17.10;92.20;;;;;;5017807;28;20473;-73
2021/04/23 08:16:55;;;;;;;13.73;4.70;;;16.90;90.50;;;;;;5023878;28;20452;-73
2021/04/23 08:19:20;;;;;;;11.47;4.83;;;17.10;91.40;;;;;;5025193;28;20227;-73
2021/04/23 08:21:46;;;;;;;14.97;4.70;;;17.40;92.30;;;;;;5018595;28;20209;-73
2021/04/23 08:24:12;;;;;;;11.33;5.17;;;17.40;90.60;;;;;;5020164;28;20174;-73
2021/04/23 08:26:40;;;;;;;19.43;5.20;;;17.40;91.10;;;;;;5020367;28;20445;-73
2021/04/23 08:29:06;;;;;;;12.97;5.23;;;17.30;90.00;;;;;;5022326;28;20205;-72
2021/04/23 08:31:31;;;;;;;9.17;4.73;;;17.40;90.80;;;;;;5018171;28;20512;-72
2021/04/23 08:33:57;;;;;;;16.00;5.63;;;17.70;90.40;;;;;;5021298;28;20673;-72
2021/04/23 08:36:22;;;;;;;9.33;5.50;;;17.60;90.00;;;;;;5018369;28;20197;-71
2021/04/23 08:38:48;;;;;;;23.03;6.93;;;17.80;90.00;;;;;;5019739;28;20631;-72
2021/04/23 08:41:13;;;;;;;12.27;5.97;;;18.00;90.20;;;;;;5018768;28;20210;-73
2021/04/23 08:43:39;;;;;;;11.90;5.50;;;18.60;88.00;;;;;;5035693;28;20186;-72
2021/04/23 08:46:05;;;;;;;13.67;6.43;;;18.60;85.00;;;;;;5018891;28;20270;-72
2021/04/23 08:48:32;;;;;;;16.80;6.27;;;18.40;86.20;;;;;;5020351;28;20209;-72
2021/04/23 08:50:59;;;;;;;8.60;5.50;;;18.40;86.20;;;;;;5020214;28;20252;-72
2021/04/23 08:53:27;;;;;;;7.60;4.70;;;18.70;87.90;;;;;;5022749;28;20467;-72
2021/04/23 08:55:54;;;;;;;7.33;5.37;;;18.60;86.30;;;;;;5016141;28;20847;-72
2021/04/23 08:58:20;;;;;;;10.40;5.27;;;18.80;88.80;;;;;;5016920;28;20436;-72
2021/04/23 09:00:46;;;;;;;14.43;4.90;;;19.20;86.60;;;;;;5019616;28;20931;-73
2021/04/23 09:03:12;;;;;;;8.27;5.17;;;19.90;87.70;;;;;;5023214;28;20183;-73
2021/04/23 09:05:38;;;;;;;11.63;5.60;;;20.20;83.80;;;;;;5019599;28;20193;-73
2021/04/23 09:08:07;;;;;;;10.43;5.37;;;20.30;81.60;;;;;;5022014;28;20425;-73
2021/04/23 09:10:34;;;;;;;12.00;6.00;;;20.10;83.80;;;;;;5023072;28;20855;-73
2021/04/23 09:13:18;;;;;;;12.47;5.90;;;19.90;83.30;;;;;;5025868;28;20426;-72
2021/04/23 09:15:46;;;;;;;8.07;5.33;;;20.20;84.30;;;;;;5020964;28;20876;-72
2021/04/23 09:18:21;;;;;;;9.00;5.43;;;20.30;82.20;;;;;;5013758;28;20457;-73
2021/04/23 09:20:59;;;;;;;9.40;5.53;;;20.40;83.80;;;;;;5022997;28;20444;-73
2021/04/23 09:23:25;;;;;;;10.73;5.60;;;20.50;79.00;;;;;;5017152;28;20431;-73
2021/04/23 09:25:56;;;;;;;7.27;5.03;;;20.10;79.40;;;;;;5020591;28;20498;-72
2021/04/23 09:28:37;;;;;;;13.33;5.67;;;20.20;82.30;;;;;;5019300;28;20457;-71
2021/04/23 09:31:23;;;;;;;13.33;5.47;;;20.50;79.70;;;;;;5016764;28;20487;-74
2021/04/23 09:33:54;;;;;;;10.50;5.60;;;20.60;81.10;;;;;;5020913;28;20518;-74
2021/04/23 09:36:44;;;;;;;10.37;5.43;;;20.60;80.40;;;;;;5015521;28;20916;-72
2021/04/23 09:39:22;;;;;;;11.27;6.20;;;20.90;82.20;;;;;;5012787;28;21005;-73
2021/04/23 09:41:54;;;;;;;9.40;6.30;;;21.50;81.20;;;;;;5016366;28;20517;-72
2021/04/23 09:44:26;;;;;;;12.83;6.00;;;21.60;78.30;;;;;;5015702;28;20433;-73
2021/04/23 09:47:02;;;;;;;12.10;5.70;;;21.00;76.00;;;;;;5018890;28;20491;-71
2021/04/23 09:49:29;;;;;;;11.83;5.70;;;20.40;76.50;;;;;;5019166;28;20440;-71
2021/04/23 09:51:55;;;;;;;27.00;6.63;;;19.80;78.50;;;;;;5021967;28;20429;-71
2021/04/23 09:54:24;;;;;;;12.97;6.93;;;20.00;79.50;;;;;;5022351;28;20469;-71
2021/04/23 09:56:52;;;;;;;12.53;6.80;;;20.20;77.50;;;;;;5011504;28;20793;-72
2021/04/23 09:59:25;;;;;;;16.30;6.33;;;20.00;77.70;;;;;;5018200;28;20441;-74
2021/04/23 10:01:58;;;;;;;10.57;6.30;;;20.10;78.90;;;;;;5018890;28;20431;-72
2021/04/23 10:04:30;;;;;;;10.60;6.47;;;20.50;77.20;;;;;;5013882;28;20497;-73
2021/04/23 10:07:06;;;;;;;14.90;6.60;;;20.00;77.90;;;;;;5016837;28;20521;-72
2021/04/23 10:09:32;;;;;;;10.40;5.63;;;20.10;77.10;;;;;;5018548;28;20445;-72
2021/04/23 10:11:58;;;;;;;13.17;7.00;;;20.30;76.10;;;;;;5012997;28;20871;-72
2021/04/23 10:14:23;;;;;;;8.57;6.20;;;20.20;77.00;;;;;;5010493;28;20473;-72
2021/04/23 10:16:56;;;;;;;9.53;5.90;;;20.80;76.50;;;;;;5010790;28;20221;-73
2021/04/23 10:19:21;;;;;;;12.37;5.77;;;21.20;78.90;;;;;;5014549;28;20253;-73
2021/04/23 10:21:47;;;;;;;12.90;6.47;;;21.40;78.80;;;;;;5012192;28;20560;-74
2021/04/23 10:24:13;;;;;;;12.70;6.87;;;21.50;75.00;;;;;;5016529;28;20186;-73
2021/04/23 10:26:40;;;;;;;16.87;6.60;;;21.60;76.50;;;;;;5014347;28;20560;-73
2021/04/23 10:29:06;;;;;;;13.80;7.17;;;21.50;73.10;;;;;;5017738;28;20210;-73
2021/04/23 10:31:32;;;;;;;11.13;7.37;;;21.20;72.70;;;;;;5019733;28;20421;-74
2021/04/23 10:33:58;;;;;;;6.80;5.63;;;21.20;72.30;;;;;;5016164;28;20476;-73
2021/04/23 10:36:24;;;;;;;12.17;6.60;;;21.10;72.90;;;;;;5020265;28;20179;-73
2021/04/23 10:38:50;;;;;;;8.10;5.57;;;20.80;74.10;;;;;;5016482;28;20445;-73
2021/04/23 10:41:16;;;;;;;11.77;6.17;;;21.30;78.00;;;;;;5017371;28;20435;-74
2021/04/23 10:43:55;;;;;;;11.03;5.33;;;21.60;74.00;;;;;;5019739;28;20428;-72
2021/04/23 10:46:23;;;;;;;28.67;6.50;;;21.30;72.20;;;;;;5018474;28;20181;-73
2021/04/23 10:48:49;;;;;;;7.70;5.10;;;21.30;73.30;;;;;;5012526;28;20995;-73
2021/04/23 10:51:20;;;;;;;10.60;6.97;;;21.10;72.80;;;;;;5022176;28;20428;-73
2021/04/23 10:54:03;;;;;;;12.13;5.53;;;20.80;73.80;;;;;;5016376;28;20465;-74
2021/04/23 10:56:35;;;;;;;13.73;6.33;;;21.00;73.40;;;;;;5016416;28;20503;-73
2021/04/23 10:59:31;;;;;;;12.60;6.70;;;21.10;75.60;;;;;;5021052;28;21356;-73
2021/04/23 11:02:18;;;;;;;7.00;5.27;;;20.80;74.40;;;;;;5016849;28;20913;-73
2021/04/23 11:04:57;;;;;;;11.20;5.33;;;20.90;73.10;;;;;;5018693;28;20424;-73
2021/04/23 11:07:23;;;;;;;11.23;5.40;;;20.80;74.50;;;;;;5013516;28;20426;-73
2021/04/23 11:10:04;;;;;;;6.40;4.33;;;20.70;74.60;;;;;;5019454;28;20445;-73
2021/04/23 11:12:30;;;;;;;11.50;4.83;;;21.00;75.00;;;;;;5017505;28;20258;-74
2021/04/23 11:15:15;;;;;;;6.93;4.60;;;20.90;69.50;;;;;;5018321;28;20917;-73
2021/04/23 11:17:41;;;;;;;11.13;5.13;;;20.80;69.00;;;;;;5025217;28;21572;-74
2021/04/23 11:20:26;;;;;;;7.63;5.53;;;20.80;72.50;;;;;;5021850;28;20459;-73
2021/04/23 11:22:57;;;;;;;13.30;6.43;;;20.50;71.10;;;;;;5020994;28;20213;-74
2021/04/23 11:25:24;;;;;;;13.57;5.80;;;20.20;70.20;;;;;;5018589;28;20512;-75
2021/04/23 11:28:02;;;;;;;10.13;6.30;;;20.00;69.40;;;;;;5022009;28;20839;-73
2021/04/23 11:30:42;;;;;;;14.17;5.30;;;20.00;70.20;;;;;;5020730;28;20908;-73
2021/04/23 11:33:08;;;;;;;15.57;5.73;;;20.40;75.80;;;;;;5023470;28;20898;-73
2021/04/23 11:35:34;;;;;;;7.43;4.43;;;20.20;69.70;;;;;;5023951;28;20529;-72
2021/04/23 11:37:59;;;;;;;12.53;5.80;;;20.40;73.30;;;;;;5023255;28;20184;-72
2021/04/23 11:40:28;;;;;;;9.60;5.33;;;20.40;71.70;;;;;;5022940;28;20208;-73
2021/04/23 11:43:00;;;;;;;10.90;6.23;;;20.20;71.00;;;;;;5021958;28;20205;-73
2021/04/23 11:45:36;;;;;;;6.30;4.17;;;20.20;72.10;;;;;;5024796;28;20990;-74
2021/04/23 11:48:05;;;;;;;9.70;5.23;;;19.90;71.70;;;;;;5023392;28;20499;-74
2021/04/23 11:50:34;;;;;;;9.13;4.57;;;19.90;75.40;;;;;;5022788;28;20424;-74
2021/04/23 11:53:11;;;;;;;11.73;6.10;;;19.90;72.70;;;;;;5018342;28;20433;-72
2021/04/23 11:55:40;;;;;;;9.93;5.27;;;19.90;71.50;;;;;;5021395;28;20433;-73
2021/04/23 11:58:08;;;;;;;11.27;4.60;;;19.80;73.20;;;;;;5018720;28;20846;-73
2021/04/23 12:00:36;;;;;;;7.97;5.20;;;19.80;72.90;;;;;;5017425;28;20433;-73
2021/04/23 12:03:06;;;;;;;6.83;4.60;;;19.50;65.80;;;;;;5018829;28;20433;-74
2021/04/23 12:05:48;;;;;;;9.60;4.70;;;19.30;66.30;;;;;;5020222;28;20426;-73
2021/04/23 12:08:30;;;;;;;7.90;4.43;;;19.10;69.80;;;;;;5012860;28;20448;-72
2021/04/23 12:11:01;;;;;;;15.23;4.63;;;19.10;66.60;;;;;;5020063;28;20428;-72
2021/04/23 12:13:30;;;;;;;7.00;4.90;;;19.20;69.70;;;;;;5021214;28;20468;-71
2021/04/23 12:15:59;;;;;;;11.53;4.80;;;19.00;67.90;;;;;;5020529;28;21009;-71
2021/04/23 12:18:26;;;;;;;5.00;4.17;;;19.10;69.10;;;;;;5019848;28;20458;-72
2021/04/23 12:20:53;;;;;;;9.73;4.63;;;19.00;68.50;;;;;;5022008;28;20444;-70
2021/04/23 12:23:24;;;;;;;7.67;4.10;;;18.90;62.70;;;;;;5020551;28;20432;-70
2021/04/23 12:26:00;;;;;;;12.33;4.60;;;18.50;60.10;;;;;;5017619;28;20423;-70
2021/04/23 12:28:48;;;;;;;7.77;4.53;;;18.60;65.80;;;;;;5019288;28;20445;-71
2021/04/23 12:31:22;;;;;;;8.00;5.20;;;18.70;67.90;;;;;;5023734;28;20508;-71
2021/04/23 12:33:54;;;;;;;6.90;3.83;;;18.60;60.80;;;;;;5017313;28;20456;-70
2021/04/23 12:36:31;;;;;;;11.30;4.87;;;18.50;63.60;;;;;;5017844;28;20783;-70
2021/04/23 12:38:58;;;;;;;10.20;5.40;;;18.30;65.50;;;;;;5019957;28;20475;-70
2021/04/23 12:41:31;;;;;;;12.73;4.90;;;18.30;66.80;;;;;;5018877;28;20810;-71
2021/04/23 12:44:02;;;;;;;8.60;6.20;;;18.20;67.30;;;;;;5020714;28;20456;-71
2021/04/23 12:46:31;;;;;;;8.60;5.43;;;18.10;68.70;;;;;;5021786;28;20464;-71
2021/04/23 12:49:04;;;;;;;7.90;4.80;;;17.90;66.30;;;;;;5023616;28;21014;-71
2021/04/23 12:51:30;;;;;;;9.27;4.37;;;17.90;67.00;;;;;;5022607;28;20483;-72
2021/04/23 12:53:57;;;;;;;8.10;5.13;;;17.80;65.30;;;;;;5016803;28;20492;-73